sensor_id;sensor_type;location;lat;lon;timestamp;pressure;altitude;pressure_sealevel;temperature;humidity
39267;BME280;24967;51.154;13.812;2023-01-24T00:01:24;101532.41;;;2.84;87.02
39267;BME280;24967;51.154;13.812;2023-01-24T00:03:52;101536.78;;;2.85;87.36
39267;BME280;24967;51.154;13.812;2023-01-24T00:06:18;101537.63;;;2.86;87.31
39267;BME280;24967;51.154;13.812;2023-01-24T00:08:44;101535.56;;;2.69;87.13
39267;BME280;24967;51.154;13.812;2023-01-24T00:11:11;101532.03;;;2.70;88.55
39267;BME280;24967;51.154;13.812;2023-01-24T00:13:38;101535.94;;;2.83;87.28
39267;BME280;24967;51.154;13.812;2023-01-24T00:16:05;101539.78;;;3.00;87.00
39267;BME280;24967;51.154;13.812;2023-01-24T00:18:32;101540.03;;;2.92;87.09
39267;BME280;24967;51.154;13.812;2023-01-24T00:21:03;101541.41;;;3.02;86.72
39267;BME280;24967;51.154;13.812;2023-01-24T00:23:30;101542.25;;;3.04;86.52
39267;BME280;24967;51.154;13.812;2023-01-24T00:25:57;101542.56;;;2.95;86.57
39267;BME280;24967;51.154;13.812;2023-01-24T00:28:23;101539.31;;;2.87;87.01
39267;BME280;24967;51.154;13.812;2023-01-24T00:30:49;101541.31;;;2.80;86.92
39267;BME280;24967;51.154;13.812;2023-01-24T00:33:16;101540.19;;;2.87;87.38
39267;BME280;24967;51.154;13.812;2023-01-24T00:35:42;101539.06;;;2.94;86.77
39267;BME280;24967;51.154;13.812;2023-01-24T00:38:10;101542.59;;;2.93;86.48
39267;BME280;24967;51.154;13.812;2023-01-24T00:40:36;101541.81;;;2.65;87.85
39267;BME280;24967;51.154;13.812;2023-01-24T00:43:02;101552.34;;;2.65;88.64
39267;BME280;24967;51.154;13.812;2023-01-24T00:45:29;101545.53;;;2.84;87.84
39267;BME280;24967;51.154;13.812;2023-01-24T00:47:55;101547.94;;;2.90;87.29
39267;BME280;24967;51.154;13.812;2023-01-24T00:50:21;101555.91;;;2.62;87.89
39267;BME280;24967;51.154;13.812;2023-01-24T00:52:48;101542.56;;;2.42;89.61
39267;BME280;24967;51.154;13.812;2023-01-24T00:55:15;101556.88;;;2.33;90.33
39267;BME280;24967;51.154;13.812;2023-01-24T00:57:42;101554.34;;;2.57;89.49
39267;BME280;24967;51.154;13.812;2023-01-24T01:00:09;101563.44;;;2.46;89.27
39267;BME280;24967;51.154;13.812;2023-01-24T01:02:35;101556.22;;;2.53;89.54
39267;BME280;24967;51.154;13.812;2023-01-24T01:05:02;101550.66;;;2.62;88.89
39267;BME280;24967;51.154;13.812;2023-01-24T01:07:28;101557.88;;;2.56;89.20
39267;BME280;24967;51.154;13.812;2023-01-24T01:09:54;101560.09;;;2.68;88.88
39267;BME280;24967;51.154;13.812;2023-01-24T01:12:22;101553.56;;;2.55;88.65
39267;BME280;24967;51.154;13.812;2023-01-24T01:14:49;101553.50;;;2.56;89.04
39267;BME280;24967;51.154;13.812;2023-01-24T01:17:15;101552.84;;;2.49;89.28
39267;BME280;24967;51.154;13.812;2023-01-24T01:19:41;101544.00;;;2.52;89.25
39267;BME280;24967;51.154;13.812;2023-01-24T01:22:08;101554.25;;;2.60;88.99
39267;BME280;24967;51.154;13.812;2023-01-24T01:24:34;101560.19;;;2.66;88.32
39267;BME280;24967;51.154;13.812;2023-01-24T01:27:01;101549.59;;;2.68;88.99
39267;BME280;24967;51.154;13.812;2023-01-24T01:29:28;101546.94;;;2.69;88.81
39267;BME280;24967;51.154;13.812;2023-01-24T01:31:55;101545.94;;;2.72;88.61
39267;BME280;24967;51.154;13.812;2023-01-24T01:34:21;101548.97;;;2.61;88.82
39267;BME280;24967;51.154;13.812;2023-01-24T01:36:47;101552.09;;;2.72;88.42
39267;BME280;24967;51.154;13.812;2023-01-24T01:39:14;101551.59;;;2.61;89.17
39267;BME280;24967;51.154;13.812;2023-01-24T01:41:40;101547.28;;;2.59;88.83
39267;BME280;24967;51.154;13.812;2023-01-24T01:44:20;101545.06;;;2.73;88.74
39267;BME280;24967;51.154;13.812;2023-01-24T01:47:08;101543.94;;;2.80;87.78
39267;BME280;24967;51.154;13.812;2023-01-24T01:49:39;101537.28;;;2.70;88.29
39267;BME280;24967;51.154;13.812;2023-01-24T01:52:09;101548.34;;;2.80;87.85
39267;BME280;24967;51.154;13.812;2023-01-24T01:54:36;101536.47;;;2.68;88.02
39267;BME280;24967;51.154;13.812;2023-01-24T01:57:05;101538.78;;;2.77;87.71
39267;BME280;24967;51.154;13.812;2023-01-24T01:59:34;101531.09;;;2.72;88.00
39267;BME280;24967;51.154;13.812;2023-01-24T02:02:01;101532.69;;;2.77;87.29
39267;BME280;24967;51.154;13.812;2023-01-24T02:04:31;101520.16;;;2.85;87.72
39267;BME280;24967;51.154;13.812;2023-01-24T02:06:59;101519.97;;;2.89;87.21
39267;BME280;24967;51.154;13.812;2023-01-24T02:09:27;101516.13;;;3.00;86.55
39267;BME280;24967;51.154;13.812;2023-01-24T02:11:55;101517.84;;;3.01;86.51
39267;BME280;24967;51.154;13.812;2023-01-24T02:14:24;101518.69;;;3.01;86.65
39267;BME280;24967;51.154;13.812;2023-01-24T02:17:09;101528.63;;;3.18;86.27
39267;BME280;24967;51.154;13.812;2023-01-24T02:20:05;101521.53;;;3.20;85.97
39267;BME280;24967;51.154;13.812;2023-01-24T02:22:38;101520.56;;;3.22;85.43
39267;BME280;24967;51.154;13.812;2023-01-24T02:25:08;101513.38;;;3.28;85.75
39267;BME280;24967;51.154;13.812;2023-01-24T02:27:38;101515.81;;;3.32;85.27
39267;BME280;24967;51.154;13.812;2023-01-24T02:30:05;101523.06;;;3.26;85.49
39267;BME280;24967;51.154;13.812;2023-01-24T02:32:31;101517.34;;;3.14;85.26
39267;BME280;24967;51.154;13.812;2023-01-24T02:34:58;101522.13;;;3.03;85.72
39267;BME280;24967;51.154;13.812;2023-01-24T02:37:24;101520.06;;;3.11;85.57
39267;BME280;24967;51.154;13.812;2023-01-24T02:39:53;101525.31;;;3.11;85.40
39267;BME280;24967;51.154;13.812;2023-01-24T02:42:21;101535.41;;;3.24;85.45
39267;BME280;24967;51.154;13.812;2023-01-24T02:44:52;101521.53;;;3.20;85.10
39267;BME280;24967;51.154;13.812;2023-01-24T02:47:24;101523.38;;;3.18;85.15
39267;BME280;24967;51.154;13.812;2023-01-24T02:49:57;101526.25;;;3.10;85.07
39267;BME280;24967;51.154;13.812;2023-01-24T02:52:23;101526.31;;;3.09;85.56
39267;BME280;24967;51.154;13.812;2023-01-24T02:55:07;101525.50;;;2.82;86.42
39267;BME280;24967;51.154;13.812;2023-01-24T02:57:33;101527.59;;;2.97;86.31
39267;BME280;24967;51.154;13.812;2023-01-24T03:00:19;101520.50;;;2.99;85.92
39267;BME280;24967;51.154;13.812;2023-01-24T03:02:45;101529.78;;;2.84;85.59
39267;BME280;24967;51.154;13.812;2023-01-24T03:05:11;101525.81;;;2.72;86.94
39267;BME280;24967;51.154;13.812;2023-01-24T03:07:38;101526.06;;;2.65;86.81
39267;BME280;24967;51.154;13.812;2023-01-24T03:10:09;101528.19;;;2.53;88.46
39267;BME280;24967;51.154;13.812;2023-01-24T03:12:36;101522.28;;;2.47;88.20
39267;BME280;24967;51.154;13.812;2023-01-24T03:15:21;101521.56;;;2.42;89.32
39267;BME280;24967;51.154;13.812;2023-01-24T03:18:05;101531.31;;;2.65;88.36
39267;BME280;24967;51.154;13.812;2023-01-24T03:20:49;101535.44;;;2.72;88.22
39267;BME280;24967;51.154;13.812;2023-01-24T03:23:33;101526.19;;;2.62;87.61
39267;BME280;24967;51.154;13.812;2023-01-24T03:26:17;101539.06;;;2.43;89.32
39267;BME280;24967;51.154;13.812;2023-01-24T03:29:01;101527.38;;;2.25;90.22
39267;BME280;24967;51.154;13.812;2023-01-24T03:31:46;101528.03;;;2.32;90.40
39267;BME280;24967;51.154;13.812;2023-01-24T03:34:30;101536.44;;;2.43;89.85
39267;BME280;24967;51.154;13.812;2023-01-24T03:36:57;101544.25;;;2.44;90.18
39267;BME280;24967;51.154;13.812;2023-01-24T03:39:23;101536.69;;;2.62;89.05
39267;BME280;24967;51.154;13.812;2023-01-24T03:42:07;101541.31;;;2.80;88.38
39267;BME280;24967;51.154;13.812;2023-01-24T03:44:33;101536.13;;;2.79;87.91
39267;BME280;24967;51.154;13.812;2023-01-24T03:47:01;101539.75;;;2.48;88.64
39267;BME280;24967;51.154;13.812;2023-01-24T03:49:27;101537.41;;;2.39;89.39
39267;BME280;24967;51.154;13.812;2023-01-24T03:52:11;101542.78;;;2.36;90.07
39267;BME280;24967;51.154;13.812;2023-01-24T03:54:53;101537.22;;;2.45;90.11
39267;BME280;24967;51.154;13.812;2023-01-24T03:57:20;101540.16;;;2.36;89.93
39267;BME280;24967;51.154;13.812;2023-01-24T03:59:47;101529.81;;;2.58;89.01
39267;BME280;24967;51.154;13.812;2023-01-24T04:02:15;101536.66;;;2.63;88.71
39267;BME280;24967;51.154;13.812;2023-01-24T04:04:41;101539.38;;;2.32;89.74
39267;BME280;24967;51.154;13.812;2023-01-24T04:07:25;101539.53;;;2.54;90.01
39267;BME280;24967;51.154;13.812;2023-01-24T04:09:51;101532.38;;;2.33;90.83
39267;BME280;24967;51.154;13.812;2023-01-24T04:12:17;101534.06;;;2.62;89.36
39267;BME280;24967;51.154;13.812;2023-01-24T04:14:44;101533.41;;;2.55;89.75
39267;BME280;24967;51.154;13.812;2023-01-24T04:17:10;101537.59;;;2.61;88.96
39267;BME280;24967;51.154;13.812;2023-01-24T04:19:40;101535.06;;;2.58;88.48
39267;BME280;24967;51.154;13.812;2023-01-24T04:22:06;101538.25;;;2.67;88.25
39267;BME280;24967;51.154;13.812;2023-01-24T04:24:33;101532.94;;;2.69;88.00
39267;BME280;24967;51.154;13.812;2023-01-24T04:26:59;101529.56;;;2.65;88.08
39267;BME280;24967;51.154;13.812;2023-01-24T04:29:25;101534.00;;;2.37;89.06
39267;BME280;24967;51.154;13.812;2023-01-24T04:31:52;101535.50;;;2.44;89.69
39267;BME280;24967;51.154;13.812;2023-01-24T04:34:18;101528.00;;;2.33;90.19
39267;BME280;24967;51.154;13.812;2023-01-24T04:36:46;101525.00;;;2.44;89.93
39267;BME280;24967;51.154;13.812;2023-01-24T04:39:12;101529.97;;;2.53;88.73
39267;BME280;24967;51.154;13.812;2023-01-24T04:41:38;101531.75;;;2.51;88.57
39267;BME280;24967;51.154;13.812;2023-01-24T04:44:05;101528.34;;;2.49;88.54
39267;BME280;24967;51.154;13.812;2023-01-24T04:46:31;101531.84;;;2.49;88.96
39267;BME280;24967;51.154;13.812;2023-01-24T04:48:57;101540.00;;;2.40;89.68
39267;BME280;24967;51.154;13.812;2023-01-24T04:51:24;101535.31;;;2.50;89.38
39267;BME280;24967;51.154;13.812;2023-01-24T04:53:52;101543.94;;;2.53;89.45
39267;BME280;24967;51.154;13.812;2023-01-24T04:56:18;101547.28;;;2.59;88.34
39267;BME280;24967;51.154;13.812;2023-01-24T04:58:44;101544.44;;;2.65;88.25
39267;BME280;24967;51.154;13.812;2023-01-24T05:01:10;101542.69;;;2.65;88.25
39267;BME280;24967;51.154;13.812;2023-01-24T05:03:37;101543.06;;;2.55;88.36
39267;BME280;24967;51.154;13.812;2023-01-24T05:06:03;101546.59;;;2.25;89.63
39267;BME280;24967;51.154;13.812;2023-01-24T05:08:29;101551.22;;;2.17;91.39
39267;BME280;24967;51.154;13.812;2023-01-24T05:11:00;101544.94;;;2.23;91.02
39267;BME280;24967;51.154;13.812;2023-01-24T05:13:27;101551.81;;;2.53;90.01
39267;BME280;24967;51.154;13.812;2023-01-24T05:15:53;101555.16;;;2.59;89.42
39267;BME280;24967;51.154;13.812;2023-01-24T05:18:20;101541.13;;;2.60;89.38
39267;BME280;24967;51.154;13.812;2023-01-24T05:20:46;101551.97;;;1.94;91.79
39267;BME280;24967;51.154;13.812;2023-01-24T05:23:12;101546.81;;;2.19;91.79
39267;BME280;24967;51.154;13.812;2023-01-24T05:25:38;101545.47;;;2.06;92.25
39267;BME280;24967;51.154;13.812;2023-01-24T05:28:06;101536.50;;;1.85;93.14
39267;BME280;24967;51.154;13.812;2023-01-24T05:30:32;101543.72;;;2.06;92.79
39267;BME280;24967;51.154;13.812;2023-01-24T05:32:58;101546.84;;;2.18;91.70
39267;BME280;24967;51.154;13.812;2023-01-24T05:35:25;101551.88;;;1.96;92.28
39267;BME280;24967;51.154;13.812;2023-01-24T05:37:51;101548.00;;;2.09;92.81
39267;BME280;24967;51.154;13.812;2023-01-24T05:40:17;101554.56;;;2.22;91.97
39267;BME280;24967;51.154;13.812;2023-01-24T05:42:44;101554.06;;;2.39;90.75
39267;BME280;24967;51.154;13.812;2023-01-24T05:45:11;101551.16;;;2.47;90.31
39267;BME280;24967;51.154;13.812;2023-01-24T05:47:37;101557.88;;;2.29;90.64
39267;BME280;24967;51.154;13.812;2023-01-24T05:50:04;101561.97;;;2.10;91.75
39267;BME280;24967;51.154;13.812;2023-01-24T05:52:30;101571.41;;;2.43;90.53
39267;BME280;24967;51.154;13.812;2023-01-24T05:54:56;101565.69;;;2.57;90.17
39267;BME280;24967;51.154;13.812;2023-01-24T05:57:23;101570.50;;;2.71;89.47
39267;BME280;24967;51.154;13.812;2023-01-24T05:59:49;101568.06;;;2.66;89.88
39267;BME280;24967;51.154;13.812;2023-01-24T06:02:17;101580.19;;;2.69;88.67
39267;BME280;24967;51.154;13.812;2023-01-24T06:04:43;101572.13;;;2.75;88.74
39267;BME280;24967;51.154;13.812;2023-01-24T06:07:09;101572.00;;;2.78;89.07
39267;BME280;24967;51.154;13.812;2023-01-24T06:09:36;101581.44;;;2.85;87.90
39267;BME280;24967;51.154;13.812;2023-01-24T06:12:02;101576.91;;;2.89;87.29
39267;BME280;24967;51.154;13.812;2023-01-24T06:14:28;101581.44;;;2.85;87.86
39267;BME280;24967;51.154;13.812;2023-01-24T06:16:55;101579.34;;;2.95;87.38
39267;BME280;24967;51.154;13.812;2023-01-24T06:19:22;101580.25;;;2.94;87.41
39267;BME280;24967;51.154;13.812;2023-01-24T06:21:51;101590.97;;;2.88;87.18
39267;BME280;24967;51.154;13.812;2023-01-24T06:24:21;101590.09;;;2.87;87.42
39267;BME280;24967;51.154;13.812;2023-01-24T06:26:48;101588.66;;;2.79;87.65
39267;BME280;24967;51.154;13.812;2023-01-24T06:29:15;101594.88;;;2.76;87.28
39267;BME280;24967;51.154;13.812;2023-01-24T06:31:45;101586.56;;;2.88;87.19
39267;BME280;24967;51.154;13.812;2023-01-24T06:34:17;101592.94;;;2.81;87.47
39267;BME280;24967;51.154;13.812;2023-01-24T06:36:52;101592.94;;;2.81;87.68
39267;BME280;24967;51.154;13.812;2023-01-24T06:39:20;101591.41;;;2.47;89.03
39267;BME280;24967;51.154;13.812;2023-01-24T06:41:47;101594.88;;;2.48;88.57
39267;BME280;24967;51.154;13.812;2023-01-24T06:44:14;101587.78;;;2.51;89.30
39267;BME280;24967;51.154;13.812;2023-01-24T06:46:40;101599.59;;;2.65;89.02
39267;BME280;24967;51.154;13.812;2023-01-24T06:49:06;101599.84;;;2.57;88.71
39267;BME280;24967;51.154;13.812;2023-01-24T06:51:33;101599.59;;;2.65;88.24
39267;BME280;24967;51.154;13.812;2023-01-24T06:54:00;101595.47;;;2.58;89.18
39267;BME280;24967;51.154;13.812;2023-01-24T06:56:26;101594.88;;;2.76;88.97
39267;BME280;24967;51.154;13.812;2023-01-24T06:58:53;101591.13;;;2.83;87.86
39267;BME280;24967;51.154;13.812;2023-01-24T07:01:19;101596.72;;;2.99;87.44
39267;BME280;24967;51.154;13.812;2023-01-24T07:03:45;101591.94;;;2.85;87.44
39267;BME280;24967;51.154;13.812;2023-01-24T07:06:12;101600.47;;;2.92;87.68
39267;BME280;24967;51.154;13.812;2023-01-24T07:08:38;101603.91;;;2.94;87.52
39267;BME280;24967;51.154;13.812;2023-01-24T07:11:06;101587.22;;;2.95;87.19
39267;BME280;24967;51.154;13.812;2023-01-24T07:13:34;101598.25;;;3.06;86.90
39267;BME280;24967;51.154;13.812;2023-01-24T07:16:00;101598.38;;;3.02;86.48
39267;BME280;24967;51.154;13.812;2023-01-24T07:18:27;101594.97;;;3.00;87.06
39267;BME280;24967;51.154;13.812;2023-01-24T07:20:54;101601.75;;;3.05;87.00
39267;BME280;24967;51.154;13.812;2023-01-24T07:23:21;101597.28;;;3.09;86.41
39267;BME280;24967;51.154;13.812;2023-01-24T07:25:48;101591.84;;;3.13;85.91
39267;BME280;24967;51.154;13.812;2023-01-24T07:28:17;101594.66;;;3.09;85.69
39267;BME280;24967;51.154;13.812;2023-01-24T07:30:43;101597.00;;;2.90;86.42
39267;BME280;24967;51.154;13.812;2023-01-24T07:33:11;101606.31;;;3.00;86.84
39267;BME280;24967;51.154;13.812;2023-01-24T07:35:38;101603.63;;;3.02;87.14
39267;BME280;24967;51.154;13.812;2023-01-24T07:38:04;101601.28;;;2.94;86.98
39267;BME280;24967;51.154;13.812;2023-01-24T07:40:30;101597.59;;;3.00;86.63
39267;BME280;24967;51.154;13.812;2023-01-24T07:42:58;101605.31;;;3.04;86.94
39267;BME280;24967;51.154;13.812;2023-01-24T07:45:26;101605.41;;;3.01;86.51
39267;BME280;24967;51.154;13.812;2023-01-24T07:47:53;101610.53;;;3.06;86.73
39267;BME280;24967;51.154;13.812;2023-01-24T07:50:20;101615.69;;;3.09;85.98
39267;BME280;24967;51.154;13.812;2023-01-24T07:52:47;101621.78;;;3.09;86.11
39267;BME280;24967;51.154;13.812;2023-01-24T07:55:15;101619.16;;;3.09;86.09
39267;BME280;24967;51.154;13.812;2023-01-24T07:57:41;101622.00;;;3.03;86.58
39267;BME280;24967;51.154;13.812;2023-01-24T08:00:08;101620.97;;;3.07;86.13
39267;BME280;24967;51.154;13.812;2023-01-24T08:02:36;101623.66;;;3.06;86.31
39267;BME280;24967;51.154;13.812;2023-01-24T08:05:03;101639.91;;;2.90;87.01
39267;BME280;24967;51.154;13.812;2023-01-24T08:07:29;101631.66;;;3.03;86.53
39267;BME280;24967;51.154;13.812;2023-01-24T08:09:56;101636.63;;;3.10;86.55
39267;BME280;24967;51.154;13.812;2023-01-24T08:12:22;101638.84;;;2.96;86.62
39267;BME280;24967;51.154;13.812;2023-01-24T08:14:48;101644.81;;;2.74;87.45
39267;BME280;24967;51.154;13.812;2023-01-24T08:17:15;101637.03;;;2.71;87.97
39267;BME280;24967;51.154;13.812;2023-01-24T08:19:43;101639.84;;;2.65;88.57
39267;BME280;24967;51.154;13.812;2023-01-24T08:22:09;101640.31;;;2.51;88.83
39267;BME280;24967;51.154;13.812;2023-01-24T08:24:35;101647.91;;;2.59;88.74
39267;BME280;24967;51.154;13.812;2023-01-24T08:27:02;101651.47;;;2.58;89.32
39267;BME280;24967;51.154;13.812;2023-01-24T08:29:30;101656.25;;;2.72;89.08
39267;BME280;24967;51.154;13.812;2023-01-24T08:31:57;101654.34;;;2.77;88.39
39267;BME280;24967;51.154;13.812;2023-01-24T08:34:23;101655.31;;;2.74;88.83
39267;BME280;24967;51.154;13.812;2023-01-24T08:36:50;101658.75;;;2.77;88.06
39267;BME280;24967;51.154;13.812;2023-01-24T08:39:17;101660.84;;;2.65;89.75
39267;BME280;24967;51.154;13.812;2023-01-24T08:41:43;101659.97;;;2.66;89.24
39267;BME280;24967;51.154;13.812;2023-01-24T08:44:10;101663.53;;;2.64;89.59
39267;BME280;24967;51.154;13.812;2023-01-24T08:46:37;101664.22;;;2.70;88.92
39267;BME280;24967;51.154;13.812;2023-01-24T08:49:03;101659.38;;;2.85;89.19
39267;BME280;24967;51.154;13.812;2023-01-24T08:51:29;101659.97;;;2.93;88.80
39267;BME280;24967;51.154;13.812;2023-01-24T08:53:57;101663.31;;;2.98;88.11
39267;BME280;24967;51.154;13.812;2023-01-24T08:56:23;101665.84;;;3.01;87.84
39267;BME280;24967;51.154;13.812;2023-01-24T08:58:50;101661.72;;;2.94;87.71
39267;BME280;24967;51.154;13.812;2023-01-24T09:01:16;101664.03;;;3.03;88.10
39267;BME280;24967;51.154;13.812;2023-01-24T09:03:42;101663.97;;;3.05;87.70
39267;BME280;24967;51.154;13.812;2023-01-24T09:06:08;101653.75;;;2.95;87.47
39267;BME280;24967;51.154;13.812;2023-01-24T09:08:35;101661.66;;;2.95;87.40
39267;BME280;24967;51.154;13.812;2023-01-24T09:11:02;101655.47;;;2.96;87.39
39267;BME280;24967;51.154;13.812;2023-01-24T09:13:29;101651.94;;;2.97;88.17
39267;BME280;24967;51.154;13.812;2023-01-24T09:15:56;101659.53;;;3.07;87.13
39267;BME280;24967;51.154;13.812;2023-01-24T09:18:23;101663.31;;;2.98;87.36
39267;BME280;24967;51.154;13.812;2023-01-24T09:20:49;101656.91;;;3.07;87.09
39267;BME280;24967;51.154;13.812;2023-01-24T09:23:15;101660.56;;;3.03;87.09
39267;BME280;24967;51.154;13.812;2023-01-24T09:25:48;101658.03;;;3.00;88.12
39267;BME280;24967;51.154;13.812;2023-01-24T09:28:16;101647.56;;;3.23;86.53
39267;BME280;24967;51.154;13.812;2023-01-24T09:30:45;101654.88;;;3.15;87.21
39267;BME280;24967;51.154;13.812;2023-01-24T09:33:11;101654.94;;;3.13;87.35
39267;BME280;24967;51.154;13.812;2023-01-24T09:35:37;101658.09;;;3.23;86.88
39267;BME280;24967;51.154;13.812;2023-01-24T09:38:03;101655.22;;;3.31;86.85
39267;BME280;24967;51.154;13.812;2023-01-24T09:40:34;101659.19;;;3.42;86.48
39267;BME280;24967;51.154;13.812;2023-01-24T09:43:08;101667.13;;;3.41;86.15
39267;BME280;24967;51.154;13.812;2023-01-24T09:45:41;101660.63;;;3.26;86.50
39267;BME280;24967;51.154;13.812;2023-01-24T09:48:11;101660.38;;;3.34;86.06
39267;BME280;24967;51.154;13.812;2023-01-24T09:50:38;101663.78;;;3.36;85.98
39267;BME280;24967;51.154;13.812;2023-01-24T09:53:08;101664.72;;;3.08;86.75
39267;BME280;24967;51.154;13.812;2023-01-24T09:55:40;101665.72;;;3.06;87.08
39267;BME280;24967;51.154;13.812;2023-01-24T09:58:10;101661.84;;;3.16;86.68
39267;BME280;24967;51.154;13.812;2023-01-24T10:00:44;101661.03;;;3.14;86.95
39267;BME280;24967;51.154;13.812;2023-01-24T10:03:12;101656.88;;;3.33;86.37
39267;BME280;24967;51.154;13.812;2023-01-24T10:05:40;101655.84;;;3.37;86.43
39267;BME280;24967;51.154;13.812;2023-01-24T10:08:11;101655.97;;;3.34;86.40
39267;BME280;24967;51.154;13.812;2023-01-24T10:10:43;101652.72;;;3.26;86.64
39267;BME280;24967;51.154;13.812;2023-01-24T10:13:13;101656.72;;;3.38;86.13
39267;BME280;24967;51.154;13.812;2023-01-24T10:15:45;101650.50;;;3.40;86.16
39267;BME280;24967;51.154;13.812;2023-01-24T10:21:00;101646.69;;;3.49;85.73
39267;BME280;24967;51.154;13.812;2023-01-24T10:23:33;101642.19;;;3.53;85.39
39267;BME280;24967;51.154;13.812;2023-01-24T10:26:03;101647.53;;;3.50;85.56
39267;BME280;24967;51.154;13.812;2023-01-24T10:28:32;101645.88;;;3.47;85.81
39267;BME280;24967;51.154;13.812;2023-01-24T10:31:02;101641.25;;;3.29;85.85
39267;BME280;24967;51.154;13.812;2023-01-24T10:33:31;101646.38;;;3.33;86.10
39267;BME280;24967;51.154;13.812;2023-01-24T10:36:00;101639.47;;;3.29;86.52
39267;BME280;24967;51.154;13.812;2023-01-24T10:38:27;101650.78;;;3.58;85.64
39267;BME280;24967;51.154;13.812;2023-01-24T10:40:54;101635.00;;;3.58;85.16
39267;BME280;24967;51.154;13.812;2023-01-24T10:43:22;101644.38;;;3.65;85.32
39267;BME280;24967;51.154;13.812;2023-01-24T10:45:51;101637.13;;;3.47;85.03
39267;BME280;24967;51.154;13.812;2023-01-24T10:48:25;101639.53;;;3.53;85.30
39267;BME280;24967;51.154;13.812;2023-01-24T10:50:53;101623.66;;;3.56;85.29
39267;BME280;24967;51.154;13.812;2023-01-24T10:53:21;101634.25;;;3.54;84.96
39267;BME280;24967;51.154;13.812;2023-01-24T10:55:48;101643.94;;;3.52;84.98
39267;BME280;24967;51.154;13.812;2023-01-24T10:58:22;101638.72;;;3.51;85.11
39267;BME280;24967;51.154;13.812;2023-01-24T11:00:54;101632.59;;;3.52;85.07
39267;BME280;24967;51.154;13.812;2023-01-24T11:03:22;101633.13;;;3.36;85.73
39267;BME280;24967;51.154;13.812;2023-01-24T11:05:51;101626.00;;;3.38;85.67
39267;BME280;24967;51.154;13.812;2023-01-24T11:08:18;101633.25;;;3.32;86.16
39267;BME280;24967;51.154;13.812;2023-01-24T11:10:45;101636.97;;;3.26;86.12
39267;BME280;24967;51.154;13.812;2023-01-24T11:13:24;101638.16;;;3.42;85.70
39267;BME280;24967;51.154;13.812;2023-01-24T11:15:51;101630.59;;;3.33;86.18
39267;BME280;24967;51.154;13.812;2023-01-24T11:18:19;101624.03;;;3.20;86.35
39267;BME280;24967;51.154;13.812;2023-01-24T11:20:46;101630.03;;;3.24;86.62
39267;BME280;24967;51.154;13.812;2023-01-24T11:23:30;101629.03;;;3.28;86.83
39267;BME280;24967;51.154;13.812;2023-01-24T11:25:58;101630.13;;;2.95;87.67
39267;BME280;24967;51.154;13.812;2023-01-24T11:28:26;101618.22;;;2.85;88.21
39267;BME280;24967;51.154;13.812;2023-01-24T11:30:54;101633.81;;;2.90;89.25
39267;BME280;24967;51.154;13.812;2023-01-24T11:33:26;101628.50;;;2.91;88.43
39267;BME280;24967;51.154;13.812;2023-01-24T11:35:56;101614.41;;;2.94;88.63
39267;BME280;24967;51.154;13.812;2023-01-24T11:38:27;101614.34;;;2.95;88.66
39267;BME280;24967;51.154;13.812;2023-01-24T11:41:01;101624.03;;;3.20;88.07
39267;BME280;24967;51.154;13.812;2023-01-24T11:46:19;101619.63;;;3.20;87.66
39267;BME280;24967;51.154;13.812;2023-01-24T11:48:50;101611.81;;;3.19;87.37
39267;BME280;24967;51.154;13.812;2023-01-24T11:51:18;101615.16;;;3.24;86.95
39267;BME280;24967;51.154;13.812;2023-01-24T11:54:05;101605.84;;;3.14;87.37
39267;BME280;24967;51.154;13.812;2023-01-24T11:56:37;101606.81;;;3.36;86.88
39267;BME280;24967;51.154;13.812;2023-01-24T11:59:13;101602.91;;;3.23;87.28
39267;BME280;24967;51.154;13.812;2023-01-24T12:01:46;101601.59;;;3.35;87.18
39267;BME280;24967;51.154;13.812;2023-01-24T12:04:20;101604.25;;;3.35;86.88
39267;BME280;24967;51.154;13.812;2023-01-24T12:06:53;101600.75;;;3.34;86.77
39267;BME280;24967;51.154;13.812;2023-01-24T12:09:22;101596.75;;;3.48;86.67
39267;BME280;24967;51.154;13.812;2023-01-24T12:11:55;101599.63;;;3.41;86.34
39267;BME280;24967;51.154;13.812;2023-01-24T12:14:32;101599.56;;;3.43;86.06
39267;BME280;24967;51.154;13.812;2023-01-24T12:17:05;101600.44;;;3.43;86.28
39267;BME280;24967;51.154;13.812;2023-01-24T12:19:45;101601.25;;;3.46;86.25
39267;BME280;24967;51.154;13.812;2023-01-24T12:22:16;101596.31;;;3.36;86.44
39267;BME280;24967;51.154;13.812;2023-01-24T12:24:43;101607.72;;;3.35;87.01
39267;BME280;24967;51.154;13.812;2023-01-24T12:27:15;101605.09;;;3.35;86.05
39267;BME280;24967;51.154;13.812;2023-01-24T12:29:44;101602.75;;;3.28;86.64
39267;BME280;24967;51.154;13.812;2023-01-24T12:32:17;101608.84;;;3.28;86.70
39267;BME280;24967;51.154;13.812;2023-01-24T12:34:49;101603.16;;;3.40;86.96
39267;BME280;24967;51.154;13.812;2023-01-24T12:37:20;101609.50;;;3.35;86.89
39267;BME280;24967;51.154;13.812;2023-01-24T12:39:53;101600.34;;;3.21;87.36
39267;BME280;24967;51.154;13.812;2023-01-24T12:42:23;101599.84;;;3.35;86.15
39267;BME280;24967;51.154;13.812;2023-01-24T12:44:55;101602.31;;;3.40;86.52
39267;BME280;24967;51.154;13.812;2023-01-24T12:47:25;101602.72;;;3.53;85.77
39267;BME280;24967;51.154;13.812;2023-01-24T12:49:57;101599.41;;;3.48;85.88
39267;BME280;24967;51.154;13.812;2023-01-24T12:52:28;101602.41;;;3.37;86.29
39267;BME280;24967;51.154;13.812;2023-01-24T12:55:00;101596.84;;;3.21;87.22
39267;BME280;24967;51.154;13.812;2023-01-24T12:57:30;101587.50;;;3.37;86.57
39267;BME280;24967;51.154;13.812;2023-01-24T12:59:58;101597.31;;;3.07;87.11
39267;BME280;24967;51.154;13.812;2023-01-24T13:02:34;101595.59;;;3.06;88.62
39267;BME280;24967;51.154;13.812;2023-01-24T13:05:11;101597.38;;;3.31;87.14